Lebanon, New Jersey
Current Conditions -  °F | °C
As of 5:53 PM on Friday 28 Nov 2014 (Local Time) from KSMQ Reporting Station
Clear Clear  
Wind Chill: 24°   Ceiling: Unl
Heat Index: 30°   Visibility: 10mi
Dew Point: 13°   Wind: 6mph
Humidity: 49%   Direction: 330°NNW
Pressure: 30.22"   Gusts: NA
Location:  40.64°N, 74.84°W
Report Text: KSMQ 282253Z AUTO 33005KT 10SM CLR M01/M11 A3022 RMK AO2 SLP237 T10111106
Loading
Personal Weather Stations






























Interactive Weather Map New forecast layout! Learn more

10-Day Weather Forecast

Advertisements
Track Severe Weather on mobile